Time;durP1;ratioP1;P1;durP2;ratioP2;P2;SDS_P1;SDS_P2;PMS_P1;PMS_P2;Temp;Humidity;BMP_temperature;BMP_pressure;BME280_temperature;BME280_humidity;BME280_pressure;Samples;Min_cycle;Max_cycle;Signal;HPM_P1;HPM_P2
2023/01/09 00:00:28;;;;;;;12.13;7.32;;;;;;;9.68;72.39;97436.25;5105861;29;20495;-70
2023/01/09 00:03:18;;;;;;;14.20;7.40;;;;;;;9.48;72.11;97409.41;5117133;29;20074;-71
2023/01/09 00:06:08;;;;;;;12.80;7.10;;;;;;;9.56;72.58;97419.94;5124000;28;20539;-72
2023/01/09 00:08:58;;;;;;;15.35;6.53;;;;;;;9.82;71.37;97406.34;5122532;29;20070;-70
2023/01/09 00:11:48;;;;;;;9.10;7.13;;;;;;;9.91;71.75;97408.94;5117308;29;20185;-69
2023/01/09 00:14:39;;;;;;;10.50;7.10;;;;;;;10.03;70.95;97412.78;5118704;29;20047;-70
2023/01/09 00:17:28;;;;;;;13.05;7.13;;;;;;;10.22;69.77;97425.53;5119941;29;20051;-71
2023/01/09 00:20:19;;;;;;;11.52;7.22;;;;;;;10.11;70.01;97404.78;5122766;29;20059;-72
2023/01/09 00:23:09;;;;;;;10.73;7.15;;;;;;;10.16;70.13;97409.53;5123307;29;20062;-70
2023/01/09 00:26:03;;;;;;;11.75;7.32;;;;;;;10.08;69.64;97407.78;5117901;29;20142;-75
2023/01/09 00:28:53;;;;;;;10.13;6.97;;;;;;;10.03;70.35;97412.78;5106949;29;20063;-72
2023/01/09 00:31:43;;;;;;;14.30;7.40;;;;;;;10.05;70.51;97405.50;5101269;29;20387;-70
2023/01/09 00:34:36;;;;;;;12.55;7.28;;;;;;;10.09;70.86;97407.59;5103471;29;20063;-69
2023/01/09 00:37:26;;;;;;;11.63;6.88;;;;;;;10.10;70.26;97408.44;5103551;29;20062;-72
2023/01/09 00:40:17;;;;;;;10.90;6.00;;;;;;;10.04;70.14;97391.44;5111039;29;20125;-72
2023/01/09 00:43:07;;;;;;;8.95;6.15;;;;;;;10.27;69.14;97404.66;5106546;29;20074;-70
2023/01/09 00:46:00;;;;;;;10.65;6.63;;;;;;;10.09;69.98;97365.22;5103702;29;20055;-71
2023/01/09 00:48:51;;;;;;;12.15;6.82;;;;;;;10.14;70.17;97399.13;5103288;29;20066;-71
2023/01/09 00:51:41;;;;;;;10.15;7.07;;;;;;;10.08;70.64;97405.16;5102875;29;20056;-71
2023/01/09 00:54:31;;;;;;;10.57;6.88;;;;;;;10.27;69.24;97401.19;5109683;29;20043;-71
2023/01/09 00:57:21;;;;;;;11.15;7.38;;;;;;;10.10;70.58;97400.50;5110957;29;20202;-70
2023/01/09 01:00:12;;;;;;;10.98;7.03;;;;;;;9.96;70.90;97401.28;5114107;29;20682;-71
2023/01/09 01:03:02;;;;;;;10.55;6.68;;;;;;;9.85;71.19;97397.22;5102959;29;20498;-72
2023/01/09 01:09:02;;;;;;;10.43;6.47;;;;;;;9.87;71.29;97404.00;5102320;29;20122;-69
2023/01/09 01:11:52;;;;;;;9.98;6.55;;;;;;;9.70;72.63;97406.94;5106410;29;20368;-71
2023/01/09 01:14:42;;;;;;;12.13;6.45;;;;;;;9.95;70.87;97397.00;5111014;29;20079;-71
2023/01/09 01:17:34;;;;;;;14.15;6.35;;;;;;;9.85;71.59;97384.00;5135097;28;20140;-72
2023/01/09 01:20:25;;;;;;;8.05;5.75;;;;;;;9.99;70.67;97383.19;5141718;28;20058;-72
2023/01/09 01:23:16;;;;;;;7.80;5.45;;;;;;;9.98;69.88;97356.91;5140731;28;20101;-71
2023/01/09 01:26:15;;;;;;;10.45;4.68;;;;;;;10.09;69.88;97372.34;5141703;28;20477;-73
2023/01/09 01:29:05;;;;;;;6.38;4.63;;;;;;;9.92;69.57;97331.16;5115172;29;20051;-73
2023/01/09 01:31:55;;;;;;;5.63;3.10;;;;;;;10.28;69.41;97355.97;5111427;29;20410;-74
2023/01/09 01:34:45;;;;;;;2.90;1.90;;;;;;;10.32;68.35;97361.72;5102585;29;20130;-72
2023/01/09 01:37:37;;;;;;;1.50;1.20;;;;;;;10.05;69.41;97347.25;5102980;29;20058;-70
2023/01/09 01:40:28;;;;;;;2.65;1.30;;;;;;;10.30;68.59;97364.56;5103440;29;20139;-71
2023/01/09 01:43:18;;;;;;;1.98;0.90;;;;;;;10.06;68.36;97370.88;5110686;29;20062;-74
2023/01/09 01:46:08;;;;;;;1.58;1.05;;;;;;;9.98;69.15;97378.91;5102247;29;20057;-74
2023/01/09 01:49:01;;;;;;;1.23;1.00;;;;;;;10.16;68.04;97375.91;5102360;29;20490;-73
2023/01/09 01:51:53;;;;;;;1.35;1.00;;;;;;;10.25;67.97;97369.53;5102098;29;20043;-71
2023/01/09 01:54:42;;;;;;;2.70;0.90;;;;;;;10.32;67.35;97367.03;5101581;29;20059;-73
2023/01/09 01:57:34;;;;;;;2.78;0.90;;;;;;;10.19;68.02;97375.56;5110962;29;20529;-72
2023/01/09 02:00:30;;;;;;;0.93;0.80;;;;;;;10.01;69.20;97383.03;5101828;29;20048;-73
2023/01/09 02:03:24;;;;;;;1.48;0.70;;;;;;;9.94;69.36;97375.00;5101630;29;20059;-71
2023/01/09 02:06:15;;;;;;;0.93;0.73;;;;;;;10.00;68.43;97376.06;5101931;29;20419;-72
2023/01/09 02:09:06;;;;;;;1.15;0.85;;;;;;;10.29;67.91;97386.75;5101631;29;20627;-73
2023/01/09 02:11:57;;;;;;;2.47;0.75;;;;;;;10.16;68.64;97385.69;5112913;29;20086;-72
2023/01/09 02:14:49;;;;;;;1.55;0.57;;;;;;;10.11;69.02;97388.91;5101460;29;20153;-74
2023/01/09 02:18:11;;;;;;;0.57;0.57;;;;;;;10.08;69.14;97394.56;5135292;28;20061;-71
2023/01/09 02:21:36;;;;;;;1.10;0.40;;;;;;;10.11;68.15;97381.78;5145005;28;20057;-71
2023/01/09 02:24:59;;;;;;;1.58;0.43;;;;;;;9.95;69.08;97378.44;5137485;28;20067;-71
2023/01/09 02:28:21;;;;;;;2.58;0.68;;;;;;;10.27;68.02;97378.19;5107432;29;20082;-70
2023/01/09 02:31:17;;;;;;;0.75;0.40;;;;;;;10.25;67.53;97364.25;5105070;29;20063;-71
2023/01/09 02:34:25;;;;;;;2.85;0.45;;;;;;;10.24;68.00;97346.72;5105314;29;20062;-70
2023/01/09 02:37:33;;;;;;;0.60;0.50;;;;;;;10.21;68.06;97348.91;5105172;29;20111;-72
2023/01/09 02:40:32;;;;;;;0.75;0.63;;;;;;;10.25;67.76;97345.72;5114846;29;20509;-70
2023/01/09 02:43:24;;;;;;;0.52;0.52;;;;;;;10.23;67.14;97360.97;5105274;29;20051;-72
2023/01/09 02:46:20;;;;;;;0.50;0.50;;;;;;;10.10;67.69;97366.06;5105438;29;20079;-72
2023/01/09 02:49:11;;;;;;;0.43;0.40;;;;;;;10.19;67.79;97369.44;5105261;29;20062;-71
2023/01/09 02:52:06;;;;;;;3.60;0.47;;;;;;;10.33;67.33;97377.47;5105137;29;20433;-71
2023/01/09 02:55:17;;;;;;;0.50;0.50;;;;;;;10.10;68.37;97376.66;5117791;29;20633;-73
2023/01/09 02:58:34;;;;;;;0.40;0.40;;;;;;;9.79;68.44;97367.00;5111995;29;20134;-72
2023/01/09 03:01:51;;;;;;;0.73;0.43;;;;;;;10.00;68.38;97370.78;5109506;29;20119;-70
2023/01/09 03:04:52;;;;;;;0.35;0.30;;;;;;;10.05;68.27;97373.72;5105410;29;20533;-69
2023/01/09 03:08:08;;;;;;;1.00;0.30;;;;;;;10.05;67.89;97368.44;5104352;29;20703;-69
2023/01/09 03:11:05;;;;;;;0.60;0.40;;;;;;;10.08;67.51;97399.84;5103999;29;20556;-69
2023/01/09 03:14:02;;;;;;;0.70;0.50;;;;;;;9.80;68.88;97392.47;5119051;29;20062;-71
2023/01/09 03:16:57;;;;;;;1.35;0.50;;;;;;;10.05;68.11;97400.22;5126775;28;20387;-71
2023/01/09 03:19:49;;;;;;;0.52;0.38;;;;;;;9.95;67.85;97413.69;5166300;23;20149;-72
2023/01/09 03:22:44;;;;;;;1.13;0.30;;;;;;;9.94;67.94;97398.81;5162412;28;20065;-72
2023/01/09 03:25:34;;;;;;;0.45;0.35;;;;;;;9.77;67.95;97395.47;5163297;28;20101;-71
2023/01/09 03:28:29;;;;;;;0.35;0.30;;;;;;;10.14;67.42;97425.63;5162976;28;20113;-72
2023/01/09 03:31:19;;;;;;;0.38;0.17;;;;;;;9.93;67.47;97407.75;5142286;28;20413;-72
2023/01/09 03:34:09;;;;;;;0.20;0.20;;;;;;;10.18;67.43;97424.25;5144603;28;20528;-72
2023/01/09 03:36:59;;;;;;;1.02;0.30;;;;;;;9.93;68.78;97428.91;5144341;28;20069;-72
2023/01/09 03:39:49;;;;;;;0.28;0.28;;;;;;;9.94;68.50;97425.28;5142846;28;20050;-72
2023/01/09 03:42:39;;;;;;;0.35;0.20;;;;;;;9.85;67.65;97448.34;5142621;28;21439;-71
2023/01/09 03:45:29;;;;;;;0.57;0.20;;;;;;;10.03;68.14;97465.75;5140347;28;20109;-72
2023/01/09 03:48:20;;;;;;;2.30;0.30;;;;;;;9.99;68.91;97475.88;5142470;28;20066;-72
2023/01/09 03:51:10;;;;;;;1.27;0.20;;;;;;;10.03;68.94;97495.72;5142282;28;20140;-71
2023/01/09 03:54:00;;;;;;;1.85;0.28;;;;;;;9.10;71.97;97545.97;5143009;28;20073;-71
2023/01/09 03:56:50;;;;;;;1.52;0.00;;;;;;;8.08;72.89;97542.91;5143100;28;20451;-69
2023/01/09 03:59:40;;;;;;;0.30;0.03;;;;;;;7.45;73.49;97556.59;5142154;28;20054;-69
2023/01/09 04:02:30;;;;;;;0.47;0.10;;;;;;;7.62;74.01;97552.22;5143288;28;20146;-72
2023/01/09 04:05:20;;;;;;;0.17;0.10;;;;;;;7.37;74.64;97554.75;5143745;28;20094;-72
2023/01/09 04:08:10;;;;;;;0.82;0.10;;;;;;;7.58;74.74;97577.25;5142022;28;20430;-71
2023/01/09 04:11:00;;;;;;;1.45;0.10;;;;;;;7.56;73.40;97574.78;5142602;28;20596;-70
2023/01/09 04:13:50;;;;;;;0.17;0.10;;;;;;;7.40;73.58;97588.72;5136596;28;20058;-70
2023/01/09 04:16:40;;;;;;;1.38;0.17;;;;;;;7.56;73.33;97580.06;5145134;28;20058;-70
2023/01/09 04:19:30;;;;;;;0.13;0.10;;;;;;;7.66;72.37;97580.75;5143196;28;20061;-70
2023/01/09 04:22:20;;;;;;;2.38;0.15;;;;;;;7.44;71.34;97597.97;5142632;28;20058;-70
2023/01/09 04:25:10;;;;;;;0.17;0.00;;;;;;;7.27;72.28;97606.78;5143344;28;20138;-70
2023/01/09 04:28:00;;;;;;;0.70;0.10;;;;;;;7.49;71.82;97615.97;5137184;28;20077;-70
2023/01/09 04:30:50;;;;;;;0.03;0.00;;;;;;;7.99;69.78;97581.66;5140492;28;20051;-70
2023/01/09 04:33:41;;;;;;;3.10;0.20;;;;;;;7.71;71.51;97625.09;5143082;28;20054;-71
2023/01/09 04:36:33;;;;;;;0.25;0.20;;;;;;;7.60;71.21;97634.13;5142083;28;20054;-71
2023/01/09 04:39:23;;;;;;;1.25;0.10;;;;;;;7.67;71.91;97637.78;5142367;28;20106;-71
2023/01/09 04:42:13;;;;;;;0.10;0.10;;;;;;;8.09;70.10;97641.41;5138573;28;20891;-71
2023/01/09 04:45:05;;;;;;;0.43;0.10;;;;;;;7.67;70.27;97658.91;5141721;28;20077;-70
2023/01/09 04:47:55;;;;;;;0.20;0.20;;;;;;;7.16;71.68;97660.59;5138015;28;20046;-70
2023/01/09 04:50:44;;;;;;;0.93;0.10;;;;;;;7.82;70.45;97658.31;5141839;28;20090;-70
2023/01/09 04:53:34;;;;;;;0.43;0.20;;;;;;;7.87;70.50;97662.13;5142733;28;20145;-70
2023/01/09 04:56:24;;;;;;;0.50;0.30;;;;;;;7.76;70.03;97663.22;5141684;28;20416;-70
2023/01/09 04:59:14;;;;;;;1.77;0.30;;;;;;;8.07;69.01;97661.84;5139789;28;20046;-70
2023/01/09 05:02:05;;;;;;;0.50;0.32;;;;;;;8.21;68.61;97671.78;5139724;28;20047;-71
2023/01/09 05:04:55;;;;;;;1.13;0.40;;;;;;;8.24;67.58;97666.19;5143348;28;20074;-71
2023/01/09 05:07:45;;;;;;;1.05;0.30;;;;;;;8.16;68.16;97677.56;5142276;28;20523;-70
2023/01/09 05:10:35;;;;;;;1.48;0.30;;;;;;;8.34;67.52;97679.25;5142497;28;20069;-69
2023/01/09 05:13:25;;;;;;;0.47;0.20;;;;;;;8.21;65.53;97662.06;5135592;28;20193;-70
2023/01/09 05:16:15;;;;;;;0.35;0.30;;;;;;;8.18;67.63;97667.69;5145507;28;20136;-70
2023/01/09 05:19:05;;;;;;;2.38;0.43;;;;;;;8.26;66.29;97685.34;5163253;28;20165;-70
2023/01/09 05:21:56;;;;;;;2.53;0.40;;;;;;;8.07;66.67;97697.00;5162054;28;20424;-70
2023/01/09 05:24:46;;;;;;;1.45;0.50;;;;;;;8.05;67.02;97690.25;5156437;28;20053;-71
2023/01/09 05:27:36;;;;;;;5.30;0.70;;;;;;;8.27;66.69;97715.22;5141540;28;20090;-70
2023/01/09 05:30:27;;;;;;;0.95;0.60;;;;;;;7.96;68.00;97728.97;5138951;28;20054;-70
2023/01/09 05:33:17;;;;;;;3.20;0.95;;;;;;;8.05;66.96;97735.13;5141500;28;20235;-71
2023/01/09 05:36:08;;;;;;;3.28;1.55;;;;;;;7.95;67.11;97725.50;5142187;28;20156;-71
2023/01/09 05:38:58;;;;;;;5.63;0.80;;;;;;;8.17;66.28;97745.22;5142350;28;20065;-71
2023/01/09 05:41:48;;;;;;;2.33;0.55;;;;;;;8.30;66.65;97746.59;5138513;28;20101;-71
2023/01/09 05:44:38;;;;;;;2.80;0.73;;;;;;;8.19;65.62;97750.34;5141235;28;20264;-71
2023/01/09 05:47:28;;;;;;;3.20;0.65;;;;;;;8.05;66.10;97758.88;5142219;28;20476;-71
2023/01/09 05:50:18;;;;;;;2.00;0.55;;;;;;;7.66;66.37;97749.59;5142132;28;20058;-70
2023/01/09 05:53:09;;;;;;;1.15;0.55;;;;;;;8.11;65.10;97766.13;5142167;28;20715;-72
2023/01/09 05:55:59;;;;;;;3.83;0.70;;;;;;;7.80;65.14;97758.72;5141164;28;20058;-71
2023/01/09 05:58:49;;;;;;;2.63;0.80;;;;;;;7.62;65.67;97768.53;5140788;28;20117;-70
2023/01/09 06:01:39;;;;;;;1.65;0.70;;;;;;;8.00;65.20;97767.25;5131015;28;20054;-71
2023/01/09 06:04:29;;;;;;;2.30;0.73;;;;;;;7.73;65.58;97776.19;5132697;28;20166;-71
2023/01/09 06:07:20;;;;;;;7.72;0.98;;;;;;;7.63;65.24;97781.56;5131724;28;20584;-72
2023/01/09 06:10:13;;;;;;;3.33;0.70;;;;;;;7.84;64.50;97783.81;5132117;28;20109;-72
2023/01/09 06:13:04;;;;;;;4.80;1.00;;;;;;;7.78;64.09;97792.34;5125781;28;20672;-74
2023/01/09 06:15:54;;;;;;;3.17;0.60;;;;;;;7.71;64.29;97767.56;5131122;28;20144;-74
2023/01/09 06:18:45;;;;;;;1.65;0.60;;;;;;;7.71;63.99;97800.06;5127844;28;20055;-73
2023/01/09 06:21:35;;;;;;;5.03;1.63;;;;;;;7.80;63.44;97810.69;5133839;28;20525;-73
2023/01/09 06:24:25;;;;;;;2.50;0.65;;;;;;;7.83;61.86;97798.00;5132399;28;20134;-73
2023/01/09 06:27:15;;;;;;;3.03;1.10;;;;;;;7.81;63.00;97817.63;5131306;28;20055;-73
2023/01/09 06:30:06;;;;;;;3.50;0.70;;;;;;;7.68;63.63;97815.38;5133528;28;20055;-73
2023/01/09 06:32:56;;;;;;;3.47;1.00;;;;;;;7.64;62.99;97827.22;5132237;28;20133;-72
2023/01/09 06:35:46;;;;;;;2.72;0.93;;;;;;;7.59;63.78;97821.59;5130033;28;20054;-71
2023/01/09 06:38:37;;;;;;;5.97;1.52;;;;;;;7.54;63.95;97814.94;5129126;28;20197;-69
2023/01/09 06:41:27;;;;;;;4.60;0.80;;;;;;;7.70;63.55;97829.25;5129136;28;20070;-69
2023/01/09 06:44:17;;;;;;;4.78;0.65;;;;;;;7.79;63.23;97819.59;5135598;28;20047;-69
2023/01/09 06:47:07;;;;;;;0.85;0.57;;;;;;;7.82;62.99;97841.22;5136085;28;20054;-71
2023/01/09 06:49:57;;;;;;;4.32;0.63;;;;;;;7.59;63.23;97832.16;5136557;28;20053;-71
2023/01/09 06:52:47;;;;;;;3.70;0.70;;;;;;;7.68;62.51;97841.75;5138688;28;20050;-70
2023/01/09 06:55:37;;;;;;;4.72;0.57;;;;;;;7.83;61.62;97849.97;5133379;28;20678;-68
2023/01/09 06:58:28;;;;;;;0.85;0.45;;;;;;;7.73;62.79;97848.25;5134484;28;20061;-70
2023/01/09 07:01:18;;;;;;;3.92;0.50;;;;;;;7.86;62.65;97837.28;5129288;28;20145;-69
2023/01/09 07:04:11;;;;;;;4.97;0.50;;;;;;;8.05;61.45;97838.06;5135811;28;20074;-68
2023/01/09 07:07:02;;;;;;;1.50;0.50;;;;;;;7.94;62.04;97845.25;5126698;28;20074;-69
2023/01/09 07:09:51;;;;;;;3.80;0.60;;;;;;;7.82;62.42;97845.69;5136836;28;20058;-70
2023/01/09 07:12:41;;;;;;;5.00;0.80;;;;;;;7.92;63.36;97860.44;5124374;29;20141;-70
2023/01/09 07:15:31;;;;;;;5.05;0.80;;;;;;;7.96;63.44;97856.47;5145851;28;20496;-69
2023/01/09 07:18:22;;;;;;;4.03;0.45;;;;;;;7.92;62.69;97841.94;5164507;28;20054;-69
2023/01/09 07:21:11;;;;;;;4.38;0.40;;;;;;;8.02;62.37;97833.09;5145998;28;20137;-68
2023/01/09 07:24:01;;;;;;;6.72;0.90;;;;;;;8.38;61.18;97833.81;5133882;28;20137;-69
2023/01/09 07:26:52;;;;;;;4.15;0.60;;;;;;;8.13;62.35;97827.53;5139955;28;20051;-68
2023/01/09 07:29:42;;;;;;;2.67;0.50;;;;;;;8.06;62.00;97845.81;5139737;28;20054;-68
2023/01/09 07:32:32;;;;;;;4.90;0.50;;;;;;;8.03;62.57;97826.84;5145183;28;20466;-70
2023/01/09 07:35:22;;;;;;;1.92;0.85;;;;;;;8.12;61.92;97842.56;5141422;28;20125;-69
2023/01/09 07:38:13;;;;;;;6.00;0.73;;;;;;;8.21;61.54;97840.78;5142443;28;20130;-69
2023/01/09 07:41:03;;;;;;;5.75;0.98;;;;;;;8.35;61.40;97850.78;5142374;28;20487;-68
2023/01/09 07:43:53;;;;;;;6.65;0.85;;;;;;;8.23;61.87;97860.75;5141322;28;20046;-70
2023/01/09 07:46:44;;;;;;;8.88;0.80;;;;;;;8.39;60.75;97848.69;5138336;28;20057;-69
2023/01/09 07:49:34;;;;;;;3.03;0.65;;;;;;;8.51;60.70;97855.34;5141984;28;20050;-70
2023/01/09 07:52:24;;;;;;;3.90;0.60;;;;;;;8.54;60.37;97873.50;5140186;28;20453;-69
2023/01/09 07:55:14;;;;;;;7.07;0.70;;;;;;;8.61;60.46;97871.91;5139511;28;20050;-70
2023/01/09 07:58:06;;;;;;;5.88;0.68;;;;;;;8.43;61.24;97879.06;5137191;28;20535;-69
2023/01/09 08:00:57;;;;;;;5.53;0.60;;;;;;;8.35;60.85;97876.34;5138507;28;20110;-69
2023/01/09 08:03:47;;;;;;;5.68;0.60;;;;;;;8.24;61.29;97885.34;5134970;28;20144;-70
2023/01/09 08:06:37;;;;;;;8.95;0.80;;;;;;;8.40;61.76;97887.31;5135624;28;20209;-70
2023/01/09 08:09:28;;;;;;;4.47;0.57;;;;;;;8.04;61.36;97878.63;5136419;28;20106;-70
2023/01/09 08:12:18;;;;;;;6.80;0.63;;;;;;;7.97;61.81;97884.53;5136671;28;20398;-70
2023/01/09 08:15:08;;;;;;;5.47;0.70;;;;;;;7.72;63.74;97896.72;5136723;28;20090;-69
2023/01/09 08:17:58;;;;;;;6.72;1.00;;;;;;;7.80;63.78;97864.28;5129454;28;20051;-69
2023/01/09 08:20:48;;;;;;;8.07;1.13;;;;;;;7.58;63.76;97884.06;5137973;28;20480;-69
2023/01/09 08:23:39;;;;;;;3.92;0.70;;;;;;;7.46;64.20;97901.94;5140441;28;20093;-68
2023/01/09 08:26:29;;;;;;;5.22;0.82;;;;;;;8.03;63.44;97893.66;5134591;28;20054;-69
2023/01/09 08:29:19;;;;;;;2.42;0.45;;;;;;;8.05;63.18;97890.88;5132268;28;20100;-69
2023/01/09 08:32:09;;;;;;;6.60;0.63;;;;;;;8.62;61.48;97899.16;5132949;28;20057;-70
2023/01/09 08:35:00;;;;;;;5.03;0.73;;;;;;;8.66;61.06;97893.38;5136224;28;20140;-72
2023/01/09 08:37:50;;;;;;;10.75;2.95;;;;;;;8.64;61.41;97902.44;5125700;28;20061;-70
2023/01/09 08:40:40;;;;;;;5.65;1.08;;;;;;;8.58;61.54;97897.81;5136258;28;20209;-70
2023/01/09 08:49:49;;;;;;;0.52;0.28;;;;;;;8.92;61.61;97900.41;5127673;28;20229;-72
2023/01/09 08:52:39;;;;;;;2.72;0.47;;;;;;;8.97;60.77;97895.47;5134199;28;20059;-69
2023/01/09 08:55:29;;;;;;;3.97;0.70;;;;;;;9.05;60.41;97895.50;5132566;28;20077;-72
2023/01/09 08:58:19;;;;;;;0.82;0.50;;;;;;;9.61;58.67;97899.25;5132169;28;20504;-71
2023/01/09 09:01:09;;;;;;;3.35;0.50;;;;;;;9.89;58.77;97899.72;5130177;28;20047;-69
2023/01/09 09:04:00;;;;;;;6.30;0.93;;;;;;;9.67;58.54;97889.81;5131189;28;20437;-69
2023/01/09 09:06:50;;;;;;;1.08;0.40;;;;;;;9.89;56.95;97877.72;5132309;28;20055;-71
2023/01/09 09:09:41;;;;;;;2.60;0.88;;;;;;;9.95;57.08;97882.34;5135036;28;20065;-70
2023/01/09 09:12:31;;;;;;;1.13;0.47;;;;;;;9.60;58.13;97884.34;5134523;28;20054;-71
2023/01/09 09:15:25;;;;;;;2.50;0.70;;;;;;;10.32;57.12;97897.72;5132240;28;20062;-72
2023/01/09 09:18:15;;;;;;;2.20;0.50;;;;;;;10.84;54.21;97898.22;5134475;28;20053;-72
2023/01/09 09:21:05;;;;;;;1.48;0.52;;;;;;;11.25;54.07;97890.88;5133210;28;20445;-70
2023/01/09 09:23:58;;;;;;;5.00;0.60;;;;;;;9.83;57.37;97899.56;5139111;28;20070;-70
2023/01/09 09:26:48;;;;;;;6.90;0.60;;;;;;;9.87;57.76;97899.09;5136984;28;20066;-70
2023/01/09 09:29:38;;;;;;;7.15;0.85;;;;;;;10.54;56.35;97884.75;5123513;28;20421;-70
2023/01/09 09:32:30;;;;;;;3.08;0.60;;;;;;;9.83;58.98;97884.53;5128844;28;20409;-70
2023/01/09 09:35:21;;;;;;;3.33;0.60;;;;;;;10.32;58.24;97899.53;5134649;28;20058;-69
2023/01/09 09:38:12;;;;;;;2.97;0.75;;;;;;;10.43;58.25;97901.00;5137812;28;20078;-68
2023/01/09 09:44:55;;;;;;;3.53;0.70;;;;;;;10.90;57.00;97902.84;5135179;28;20138;-67
2023/01/09 09:47:56;;;;;;;1.70;0.60;;;;;;;10.51;56.62;97898.34;5135088;28;20079;-69
2023/01/09 09:51:04;;;;;;;3.35;0.70;;;;;;;10.78;56.80;97907.69;5129838;28;20077;-69
2023/01/09 09:54:09;;;;;;;3.15;0.80;;;;;;;11.01;55.22;97910.41;5127994;28;20073;-69
2023/01/09 09:57:04;;;;;;;3.88;0.50;;;;;;;10.23;57.32;97911.97;5131862;28;20517;-70
2023/01/09 09:59:55;;;;;;;3.05;0.50;;;;;;;10.92;54.91;97912.25;5129777;28;20073;-70
2023/01/09 10:02:50;;;;;;;2.30;0.40;;;;;;;10.15;56.69;97877.53;5135365;28;20116;-69
2023/01/09 10:05:44;;;;;;;4.03;0.60;;;;;;;10.22;56.67;97907.63;5140205;28;20164;-70
2023/01/09 10:08:44;;;;;;;1.17;0.30;;;;;;;10.63;54.71;97891.69;5139008;28;20051;-70
2023/01/09 10:11:43;;;;;;;6.85;0.90;;;;;;;10.06;56.73;97886.47;5137211;28;20050;-70
2023/01/09 10:14:33;;;;;;;3.08;0.98;;;;;;;10.35;55.99;97899.22;5137887;28;20047;-70
2023/01/09 10:17:43;;;;;;;4.20;0.57;;;;;;;10.31;56.27;97893.41;5139439;28;20385;-70
2023/01/09 10:20:55;;;;;;;2.53;0.50;;;;;;;10.23;56.56;97884.63;5138743;28;20054;-69
2023/01/09 10:23:58;;;;;;;2.83;0.50;;;;;;;9.79;57.19;97877.88;5137616;28;20061;-69
2023/01/09 10:26:52;;;;;;;6.37;0.40;;;;;;;10.06;57.09;97878.53;5134472;28;20055;-69
2023/01/09 10:30:00;;;;;;;0.75;0.40;;;;;;;9.99;57.99;97867.78;5137546;28;20306;-71
2023/01/09 10:33:15;;;;;;;3.05;0.50;;;;;;;10.35;56.51;97873.53;5124591;28;20492;-70
2023/01/09 10:36:14;;;;;;;0.50;0.30;;;;;;;10.03;56.81;97874.41;5137006;28;20058;-70
2023/01/09 10:39:13;;;;;;;2.50;0.30;;;;;;;10.36;56.76;97861.09;5139182;28;20069;-70
2023/01/09 10:42:32;;;;;;;5.68;0.85;;;;;;;10.28;56.63;97871.75;5143019;28;20050;-69
2023/01/09 10:45:36;;;;;;;2.40;0.50;;;;;;;10.11;57.16;97865.63;5141802;28;20149;-72
2023/01/09 10:48:31;;;;;;;3.55;0.52;;;;;;;10.45;55.83;97867.22;5150150;28;20058;-71
2023/01/09 10:51:46;;;;;;;5.13;0.90;;;;;;;10.57;55.99;97842.00;5140433;28;20061;-71
2023/01/09 10:54:42;;;;;;;2.85;0.80;;;;;;;10.94;55.48;97840.50;5141300;28;20058;-70
2023/01/09 10:57:44;;;;;;;7.32;2.90;;;;;;;10.98;54.26;97841.78;5141684;28;20083;-70
2023/01/09 11:00:41;;;;;;;33.05;10.98;;;;;;;11.24;54.47;97858.22;5139952;28;20061;-70
2023/01/09 11:03:41;;;;;;;3.58;0.75;;;;;;;11.34;53.77;97847.38;5141908;28;20108;-73
2023/01/09 11:06:46;;;;;;;4.20;0.57;;;;;;;11.07;53.82;97840.75;5140092;28;20065;-69
2023/01/09 11:09:54;;;;;;;2.60;0.60;;;;;;;11.22;53.91;97859.38;5136538;28;20051;-69
2023/01/09 11:12:45;;;;;;;0.80;0.45;;;;;;;11.29;55.34;97839.09;5140618;28;20512;-72
2023/01/09 11:15:35;;;;;;;2.25;0.40;;;;;;;11.09;55.15;97846.69;5140955;28;20058;-71
2023/01/09 11:18:25;;;;;;;2.97;0.70;;;;;;;10.67;55.05;97852.41;5133604;28;20063;-70
2023/01/09 11:21:40;;;;;;;9.13;1.00;;;;;;;10.74;54.05;97850.72;5138276;28;20054;-73
2023/01/09 11:24:31;;;;;;;5.15;0.80;;;;;;;10.76;54.93;97831.00;5141680;28;20097;-71
2023/01/09 11:27:23;;;;;;;2.72;0.60;;;;;;;10.92;55.31;97837.19;5142822;28;20051;-71
2023/01/09 11:30:16;;;;;;;4.35;0.80;;;;;;;11.30;54.02;97846.09;5137617;28;20100;-73
2023/01/09 11:33:23;;;;;;;4.90;0.75;;;;;;;10.93;54.61;97852.13;5136719;28;20413;-71
2023/01/09 11:36:14;;;;;;;2.88;0.57;;;;;;;10.97;54.66;97848.13;5140963;28;20185;-70
2023/01/09 11:39:05;;;;;;;5.90;0.80;;;;;;;11.02;53.97;97827.19;5139537;28;20047;-68
2023/01/09 11:42:04;;;;;;;2.22;0.55;;;;;;;10.95;54.42;97836.84;5141556;28;20437;-70
2023/01/09 11:44:58;;;;;;;6.78;0.85;;;;;;;10.61;55.45;97831.88;5143124;28;20047;-69
2023/01/09 11:47:48;;;;;;;7.18;1.30;;;;;;;11.21;53.33;97836.53;5139796;28;20055;-71
2023/01/09 11:50:38;;;;;;;9.35;1.88;;;;;;;10.49;55.29;97818.16;5139265;28;20059;-71
2023/01/09 11:53:42;;;;;;;5.68;1.40;;;;;;;11.27;53.27;97820.72;5137440;28;20387;-71
2023/01/09 11:56:34;;;;;;;3.47;0.70;;;;;;;11.03;54.42;97834.16;5137034;28;20630;-70
2023/01/09 11:59:29;;;;;;;8.15;0.63;;;;;;;11.10;54.60;97827.16;5133670;28;20058;-69
2023/01/09 12:02:44;;;;;;;4.43;0.57;;;;;;;10.57;54.83;97807.56;5140118;28;20055;-70
2023/01/09 12:05:40;;;;;;;;;;;;;;;10.80;54.86;97818.22;5141331;28;20069;-70
2023/01/09 12:08:41;;;;;;;3.03;0.70;;;;;;;10.96;55.10;97811.97;5136380;28;19929;-70
2023/01/09 12:11:35;;;;;;;4.75;0.60;;;;;;;10.98;54.07;97828.53;5142257;28;20058;-70
2023/01/09 12:14:31;;;;;;;;;;;;;;;10.69;55.71;97832.66;5140472;28;20051;-70
2023/01/09 12:17:55;;;;;;;5.72;0.90;;;;;;;10.90;56.66;97834.72;5140966;28;20299;-70
2023/01/09 12:20:59;;;;;;;4.90;0.52;;;;;;;10.45;58.21;97835.41;5142937;28;20105;-70
2023/01/09 12:24:06;;;;;;;;;;;;;;;10.77;60.62;97840.59;5141449;28;20169;-70
2023/01/09 12:27:18;;;;;;;10.45;1.42;;;;;;;10.81;59.15;97849.84;5138396;28;20396;-70
2023/01/09 12:30:25;;;;;;;9.63;1.30;;;;;;;10.79;60.34;97857.16;5139537;28;20065;-70
2023/01/09 12:33:29;;;;;;;6.50;0.90;;;;;;;10.48;61.70;97854.44;5136468;28;20050;-70
2023/01/09 12:36:24;;;;;;;6.20;0.95;;;;;;;10.56;61.67;97869.50;5141555;28;20058;-69
2023/01/09 12:39:49;;;;;;;3.13;0.65;;;;;;;9.76;63.13;97872.09;5141089;28;20065;-69
2023/01/09 12:42:48;;;;;;;;;;;;;;;9.84;62.42;97875.59;5140812;28;20062;-70
2023/01/09 12:45:51;;;;;;;3.83;0.68;;;;;;;9.75;63.64;97881.88;5141048;28;20296;-69
2023/01/09 12:49:06;;;;;;;4.10;0.80;;;;;;;10.05;63.44;97887.47;5140331;28;20062;-70
2023/01/09 12:52:11;;;;;;;;;;;;;;;9.83;64.48;97896.91;5137470;28;20054;-69
2023/01/09 12:55:16;;;;;;;6.20;1.00;;;;;;;8.79;67.95;97897.41;5141673;28;19967;-70
2023/01/09 12:58:28;;;;;;;1.60;0.70;;;;;;;9.19;66.72;97878.19;5138118;28;20122;-70
2023/01/09 13:01:40;;;;;;;3.63;0.80;;;;;;;9.73;65.05;97886.50;5137426;28;20047;-70
2023/01/09 13:04:35;;;;;;;5.10;0.80;;;;;;;9.98;66.17;97871.44;5141661;28;20093;-71
2023/01/09 13:07:31;;;;;;;6.38;0.88;;;;;;;10.21;65.97;97876.03;5140430;28;20057;-70
2023/01/09 13:10:27;;;;;;;10.48;1.00;;;;;;;10.01;65.35;97865.78;5141538;28;20125;-70
2023/01/09 13:13:48;;;;;;;4.78;0.85;;;;;;;10.31;64.53;97880.19;5134601;28;20108;-70
2023/01/09 13:16:45;;;;;;;6.15;0.90;;;;;;;10.08;65.35;97885.31;5139610;28;20105;-70
2023/01/09 13:19:38;;;;;;;5.03;1.20;;;;;;;10.02;67.01;97877.22;5152326;28;20092;-69
2023/01/09 13:22:29;;;;;;;7.53;1.20;;;;;;;10.32;65.05;97886.28;5136832;28;20057;-71
2023/01/09 13:25:37;;;;;;;7.43;1.38;;;;;;;10.21;66.95;97897.22;5143838;28;20055;-71
2023/01/09 13:28:45;;;;;;;6.75;1.73;;;;;;;10.24;65.14;97897.72;5137934;28;20509;-71
2023/01/09 13:32:14;;;;;;;6.50;1.40;;;;;;;10.28;66.50;97899.06;5138103;28;20065;-70
2023/01/09 13:35:14;;;;;;;4.80;1.30;;;;;;;10.42;65.75;97899.34;5139656;28;20042;-72
2023/01/09 13:38:19;;;;;;;5.00;1.20;;;;;;;10.38;64.32;97898.03;5120940;28;20960;-70
2023/01/09 13:44:27;;;;;;;4.38;1.38;;;;;;;10.05;64.96;97892.78;5138106;28;20552;-71
2023/01/09 13:47:27;;;;;;;7.35;1.75;;;;;;;10.22;64.70;97905.00;5138678;28;20046;-70
2023/01/09 13:50:25;;;;;;;8.25;1.60;;;;;;;10.04;65.03;97902.53;5141424;28;20440;-70
2023/01/09 13:53:18;;;;;;;8.55;0.98;;;;;;;9.78;64.62;97912.47;5138414;28;20058;-71
2023/01/09 13:56:08;;;;;;;3.15;0.68;;;;;;;8.83;66.71;97912.75;5138008;28;20054;-71
2023/01/09 13:59:01;;;;;;;1.80;0.70;;;;;;;9.21;66.64;97921.16;5139057;28;20421;-69
2023/01/09 14:01:51;;;;;;;4.50;0.60;;;;;;;9.39;66.15;97908.63;5140095;28;20064;-70
2023/01/09 14:04:43;;;;;;;2.20;0.55;;;;;;;9.08;66.79;97936.66;5139873;28;20066;-71